sensor_id;sensor_type;location;lat;lon;timestamp;P1;durP1;ratioP1;P2;durP2;ratioP2
22571;SDS011;11452;53.368;14.658;2023-04-25T00:03:58;1.47;;;1.10;;
22571;SDS011;11452;53.368;14.658;2023-04-25T00:09:04;2.77;;;1.17;;
22571;SDS011;11452;53.368;14.658;2023-04-25T00:14:14;1.37;;;1.27;;
22571;SDS011;11452;53.368;14.658;2023-04-25T00:19:20;1.20;;;1.10;;
22571;SDS011;11452;53.368;14.658;2023-04-25T00:24:26;2.53;;;1.10;;
22571;SDS011;11452;53.368;14.658;2023-04-25T00:29:31;1.87;;;1.30;;
22571;SDS011;11452;53.368;14.658;2023-04-25T00:34:37;1.90;;;1.40;;
22571;SDS011;11452;53.368;14.658;2023-04-25T00:39:43;1.60;;;1.43;;
22571;SDS011;11452;53.368;14.658;2023-04-25T00:44:49;1.33;;;1.20;;
22571;SDS011;11452;53.368;14.658;2023-04-25T00:49:56;1.10;;;1.10;;
22571;SDS011;11452;53.368;14.658;2023-04-25T00:55:01;2.73;;;1.80;;
22571;SDS011;11452;53.368;14.658;2023-04-25T01:00:08;4.13;;;1.60;;
22571;SDS011;11452;53.368;14.658;2023-04-25T01:05:14;1.87;;;1.70;;
22571;SDS011;11452;53.368;14.658;2023-04-25T01:10:22;2.07;;;1.87;;
22571;SDS011;11452;53.368;14.658;2023-04-25T01:15:28;2.40;;;1.90;;
22571;SDS011;11452;53.368;14.658;2023-04-25T01:20:34;1.67;;;1.50;;
22571;SDS011;11452;53.368;14.658;2023-04-25T01:25:41;1.93;;;1.40;;
22571;SDS011;11452;53.368;14.658;2023-04-25T01:30:47;2.73;;;1.83;;
22571;SDS011;11452;53.368;14.658;2023-04-25T01:35:53;2.67;;;1.77;;
22571;SDS011;11452;53.368;14.658;2023-04-25T01:40:59;3.63;;;2.03;;
22571;SDS011;11452;53.368;14.658;2023-04-25T01:46:05;3.93;;;1.57;;
22571;SDS011;11452;53.368;14.658;2023-04-25T01:51:11;2.90;;;1.80;;
22571;SDS011;11452;53.368;14.658;2023-04-25T01:56:18;2.00;;;1.90;;
22571;SDS011;11452;53.368;14.658;2023-04-25T02:01:24;3.07;;;2.00;;
22571;SDS011;11452;53.368;14.658;2023-04-25T02:06:35;2.17;;;1.80;;
22571;SDS011;11452;53.368;14.658;2023-04-25T02:11:42;4.07;;;1.93;;
22571;SDS011;11452;53.368;14.658;2023-04-25T02:17:05;2.33;;;1.90;;
22571;SDS011;11452;53.368;14.658;2023-04-25T02:22:11;2.63;;;1.87;;
22571;SDS011;11452;53.368;14.658;2023-04-25T02:27:17;3.53;;;2.20;;
22571;SDS011;11452;53.368;14.658;2023-04-25T02:32:23;2.03;;;1.83;;
22571;SDS011;11452;53.368;14.658;2023-04-25T02:37:29;2.60;;;1.83;;
22571;SDS011;11452;53.368;14.658;2023-04-25T02:42:35;1.93;;;1.70;;
22571;SDS011;11452;53.368;14.658;2023-04-25T02:47:41;2.27;;;1.90;;
22571;SDS011;11452;53.368;14.658;2023-04-25T02:52:47;2.30;;;2.10;;
22571;SDS011;11452;53.368;14.658;2023-04-25T02:57:54;3.20;;;2.03;;
22571;SDS011;11452;53.368;14.658;2023-04-25T03:03:13;2.63;;;1.90;;
22571;SDS011;11452;53.368;14.658;2023-04-25T03:08:21;2.60;;;1.70;;
22571;SDS011;11452;53.368;14.658;2023-04-25T03:13:26;2.40;;;2.00;;
22571;SDS011;11452;53.368;14.658;2023-04-25T03:18:34;3.00;;;1.90;;
22571;SDS011;11452;53.368;14.658;2023-04-25T03:23:40;2.47;;;2.10;;
22571;SDS011;11452;53.368;14.658;2023-04-25T03:28:46;2.33;;;2.13;;
22571;SDS011;11452;53.368;14.658;2023-04-25T03:33:52;3.33;;;2.30;;
22571;SDS011;11452;53.368;14.658;2023-04-25T03:38:58;3.17;;;2.10;;
22571;SDS011;11452;53.368;14.658;2023-04-25T03:44:04;3.03;;;2.07;;
22571;SDS011;11452;53.368;14.658;2023-04-25T03:49:10;4.07;;;3.07;;
22571;SDS011;11452;53.368;14.658;2023-04-25T03:54:29;4.27;;;2.80;;
22571;SDS011;11452;53.368;14.658;2023-04-25T03:59:36;5.60;;;3.13;;
22571;SDS011;11452;53.368;14.658;2023-04-25T04:04:43;2.70;;;2.43;;
22571;SDS011;11452;53.368;14.658;2023-04-25T04:09:50;7.43;;;2.87;;
22571;SDS011;11452;53.368;14.658;2023-04-25T04:14:57;3.30;;;3.00;;
22571;SDS011;11452;53.368;14.658;2023-04-25T04:20:04;3.87;;;3.20;;
22571;SDS011;11452;53.368;14.658;2023-04-25T04:25:13;5.63;;;2.47;;
22571;SDS011;11452;53.368;14.658;2023-04-25T04:30:39;3.60;;;3.03;;
22571;SDS011;11452;53.368;14.658;2023-04-25T04:35:46;3.00;;;2.23;;
22571;SDS011;11452;53.368;14.658;2023-04-25T04:40:52;4.53;;;2.80;;
22571;SDS011;11452;53.368;14.658;2023-04-25T04:46:00;3.00;;;2.30;;
22571;SDS011;11452;53.368;14.658;2023-04-25T04:51:17;3.80;;;2.90;;
22571;SDS011;11452;53.368;14.658;2023-04-25T04:56:26;3.37;;;2.60;;
22571;SDS011;11452;53.368;14.658;2023-04-25T05:01:42;4.00;;;2.57;;
22571;SDS011;11452;53.368;14.658;2023-04-25T05:06:49;3.10;;;2.40;;
22571;SDS011;11452;53.368;14.658;2023-04-25T05:12:09;4.67;;;2.00;;
22571;SDS011;11452;53.368;14.658;2023-04-25T05:17:16;3.57;;;3.07;;
22571;SDS011;11452;53.368;14.658;2023-04-25T05:22:40;3.87;;;2.90;;
22571;SDS011;11452;53.368;14.658;2023-04-25T05:27:47;4.77;;;2.80;;
22571;SDS011;11452;53.368;14.658;2023-04-25T05:33:12;5.97;;;2.80;;
22571;SDS011;11452;53.368;14.658;2023-04-25T05:38:19;3.27;;;2.97;;
22571;SDS011;11452;53.368;14.658;2023-04-25T05:43:43;5.13;;;2.90;;
22571;SDS011;11452;53.368;14.658;2023-04-25T05:48:58;3.93;;;2.67;;
22571;SDS011;11452;53.368;14.658;2023-04-25T05:54:18;4.20;;;2.93;;
22571;SDS011;11452;53.368;14.658;2023-04-25T05:59:24;3.30;;;2.93;;
22571;SDS011;11452;53.368;14.658;2023-04-25T06:04:30;6.03;;;3.80;;
22571;SDS011;11452;53.368;14.658;2023-04-25T06:09:36;5.10;;;3.47;;
22571;SDS011;11452;53.368;14.658;2023-04-25T06:14:44;8.10;;;4.00;;
22571;SDS011;11452;53.368;14.658;2023-04-25T06:19:50;7.53;;;3.80;;
22571;SDS011;11452;53.368;14.658;2023-04-25T06:24:56;5.70;;;3.23;;
